createdAt,value
2023-02-27T00:00:14.969Z,7.30
2023-02-27T00:03:01.185Z,7.21
2023-02-27T00:05:47.160Z,7.27
2023-02-27T00:08:33.039Z,7.19
2023-02-27T00:11:18.842Z,7.23
2023-02-27T00:14:04.905Z,7.35
2023-02-27T00:16:51.019Z,7.32
2023-02-27T00:19:36.993Z,7.11
2023-02-27T00:22:22.775Z,7.08
2023-02-27T00:25:09.227Z,7.08
2023-02-27T00:27:56.893Z,7.04
2023-02-27T00:30:43.038Z,7.04
2023-02-27T00:33:28.652Z,6.88
2023-02-27T00:36:14.597Z,6.92
2023-02-27T00:39:00.400Z,6.77
2023-02-27T00:41:46.239Z,6.84
2023-02-27T00:44:32.242Z,6.78
2023-02-27T00:47:18.061Z,6.74
2023-02-27T00:50:04.381Z,6.73
2023-02-27T00:52:50.412Z,6.77
2023-02-27T00:55:36.226Z,6.83
2023-02-27T00:58:22.073Z,6.90
2023-02-27T01:01:07.892Z,6.80
2023-02-27T01:03:53.830Z,6.75
2023-02-27T01:06:39.696Z,6.85
2023-02-27T01:09:25.361Z,6.85
2023-02-27T01:12:11.254Z,6.67
2023-02-27T01:14:57.193Z,6.82
2023-02-27T01:17:43.372Z,6.84
2023-02-27T01:20:29.573Z,6.73
2023-02-27T01:23:15.286Z,6.72
2023-02-27T01:26:01.692Z,6.72
2023-02-27T01:28:47.635Z,6.59
2023-02-27T01:31:33.869Z,6.71
2023-02-27T01:34:19.730Z,6.68
2023-02-27T01:37:05.554Z,6.63
2023-02-27T01:39:51.249Z,6.66
2023-02-27T01:42:37.154Z,6.67
2023-02-27T01:45:30.675Z,6.65
2023-02-27T01:48:27.145Z,6.59
2023-02-27T01:51:19.609Z,6.62
2023-02-27T01:54:07.464Z,6.66
2023-02-27T01:56:53.805Z,6.65
2023-02-27T01:59:41.658Z,6.70
2023-02-27T02:02:33.626Z,6.70
2023-02-27T02:05:20.922Z,6.66
2023-02-27T02:08:06.892Z,6.70
2023-02-27T02:10:54.031Z,6.58
2023-02-27T02:13:40.707Z,6.64
2023-02-27T02:16:33.129Z,6.66
2023-02-27T02:19:49.973Z,6.61
2023-02-27T02:23:06.972Z,6.65
2023-02-27T02:25:57.526Z,6.66
2023-02-27T02:28:52.441Z,6.60
2023-02-27T02:31:56.720Z,6.74
2023-02-27T02:35:00.509Z,6.62
2023-02-27T02:38:23.715Z,6.46
2023-02-27T02:41:22.534Z,6.54
2023-02-27T02:44:30.102Z,6.49
2023-02-27T02:47:51.319Z,6.65
2023-02-27T02:50:52.189Z,6.61
2023-02-27T02:53:48.367Z,6.71
2023-02-27T02:56:39.997Z,6.77
2023-02-27T02:59:58.550Z,6.83
2023-02-27T03:02:49.208Z,6.80
2023-02-27T03:05:38.521Z,6.87
2023-02-27T03:08:28.013Z,6.91
2023-02-27T03:11:14.504Z,6.86
2023-02-27T03:14:23.223Z,6.89
2023-02-27T03:17:14.576Z,6.95
2023-02-27T03:20:05.187Z,6.93
2023-02-27T03:22:54.377Z,6.99
2023-02-27T03:25:40.969Z,6.95
2023-02-27T03:28:30.069Z,6.99
2023-02-27T03:31:46.796Z,6.80
2023-02-27T03:34:38.713Z,6.88
2023-02-27T03:37:41.712Z,6.78
2023-02-27T03:40:35.337Z,6.90
2023-02-27T03:43:41.854Z,6.91
2023-02-27T03:46:28.306Z,6.92
2023-02-27T03:49:14.725Z,6.87
2023-02-27T03:52:00.478Z,6.90
2023-02-27T03:54:51.719Z,6.87
2023-02-27T03:57:38.478Z,6.90
2023-02-27T04:00:25.371Z,6.90
2023-02-27T04:03:11.404Z,6.97
2023-02-27T04:06:17.334Z,6.99
2023-02-27T04:09:08.781Z,7.03
2023-02-27T04:12:04.954Z,7.00
2023-02-27T04:15:10.805Z,7.01
2023-02-27T04:18:20.250Z,7.03
2023-02-27T04:21:10.627Z,7.09
2023-02-27T04:24:04.636Z,7.08
2023-02-27T04:26:55.625Z,7.06
2023-02-27T04:29:54.432Z,7.04
2023-02-27T04:33:11.600Z,6.98
2023-02-27T04:36:07.286Z,7.02
2023-02-27T04:39:09.602Z,7.01
2023-02-27T04:42:02.521Z,7.03
2023-02-27T04:44:49.140Z,7.07
2023-02-27T04:47:48.037Z,6.95
2023-02-27T04:50:47.781Z,7.01
2023-02-27T04:53:45.704Z,7.08
2023-02-27T04:56:35.419Z,7.01
2023-02-27T04:59:28.023Z,7.06
2023-02-27T05:02:44.336Z,6.98
2023-02-27T05:05:33.408Z,7.07
2023-02-27T05:08:37.146Z,7.01
2023-02-27T05:11:25.111Z,7.10
2023-02-27T05:14:13.220Z,7.11
2023-02-27T05:17:05.156Z,6.95
2023-02-27T05:19:51.510Z,7.02
2023-02-27T05:22:59.511Z,6.99
2023-02-27T05:26:17.487Z,6.96
2023-02-27T05:29:15.476Z,7.00
2023-02-27T05:32:42.102Z,6.86
2023-02-27T05:35:38.679Z,7.01
2023-02-27T05:38:31.968Z,6.89
2023-02-27T05:41:31.501Z,6.91
2023-02-27T05:44:20.979Z,6.90
2023-02-27T05:47:17.489Z,6.90
2023-02-27T05:50:07.939Z,6.97
2023-02-27T05:52:54.954Z,6.99
2023-02-27T05:55:43.754Z,7.00
2023-02-27T05:58:33.524Z,6.99
2023-02-27T06:01:19.588Z,6.95
2023-02-27T06:04:05.404Z,6.94
2023-02-27T06:06:52.050Z,7.03
2023-02-27T06:09:38.415Z,7.02
2023-02-27T06:12:25.395Z,7.05
2023-02-27T06:15:12.488Z,7.01
2023-02-27T06:17:58.293Z,6.93
2023-02-27T06:20:45.081Z,6.99
2023-02-27T06:23:31.375Z,6.92
2023-02-27T06:26:17.986Z,6.93
2023-02-27T06:29:03.908Z,6.91
2023-02-27T06:31:49.785Z,6.79
2023-02-27T06:34:35.705Z,6.87
2023-02-27T06:37:22.392Z,6.85
2023-02-27T06:40:12.031Z,6.76
2023-02-27T06:42:58.145Z,6.69
2023-02-27T06:45:48.793Z,6.79
2023-02-27T06:48:35.057Z,6.80
2023-02-27T06:51:20.800Z,6.84
2023-02-27T06:54:06.769Z,6.70
2023-02-27T06:56:52.589Z,6.82
2023-02-27T06:59:38.442Z,6.79
2023-02-27T07:02:25.670Z,6.82
2023-02-27T07:05:12.195Z,6.92
2023-02-27T07:07:58.700Z,6.95
2023-02-27T07:10:47.242Z,6.79
2023-02-27T07:13:33.294Z,6.83
2023-02-27T07:16:19.130Z,6.90
2023-02-27T07:19:04.971Z,6.90
2023-02-27T07:21:51.111Z,6.88
2023-02-27T07:24:37.027Z,6.89
2023-02-27T07:27:23.198Z,6.92
2023-02-27T07:30:09.477Z,6.93
2023-02-27T07:32:55.304Z,6.88
2023-02-27T07:35:41.278Z,7.02
2023-02-27T07:38:28.943Z,7.02
2023-02-27T07:41:29.580Z,7.04
2023-02-27T07:44:19.038Z,6.92
2023-02-27T07:47:04.780Z,7.06
2023-02-27T07:49:50.642Z,7.09
2023-02-27T07:52:36.525Z,7.03
2023-02-27T07:55:22.485Z,7.06
2023-02-27T07:58:08.458Z,7.01
2023-02-27T08:00:54.669Z,7.06
2023-02-27T08:03:40.541Z,6.91
2023-02-27T08:06:26.688Z,7.09
2023-02-27T08:09:12.820Z,7.09
2023-02-27T08:11:59.002Z,7.00
2023-02-27T08:14:45.158Z,7.05
2023-02-27T08:17:31.058Z,7.06
2023-02-27T08:20:17.151Z,7.02
2023-02-27T08:23:03.200Z,7.08
2023-02-27T08:25:49.230Z,7.04
2023-02-27T08:28:35.424Z,7.13
2023-02-27T08:31:21.211Z,7.12
2023-02-27T08:34:10.611Z,7.10
2023-02-27T08:36:56.800Z,7.17
2023-02-27T08:39:42.537Z,7.21
2023-02-27T08:42:28.627Z,7.18
2023-02-27T08:45:14.907Z,7.30
2023-02-27T08:48:00.732Z,7.34
2023-02-27T08:50:47.324Z,7.34
2023-02-27T08:53:33.558Z,7.35
2023-02-27T08:56:19.349Z,7.37
2023-02-27T08:59:05.257Z,7.44
2023-02-27T09:01:51.137Z,7.43
2023-02-27T09:04:36.946Z,7.50
2023-02-27T09:07:22.961Z,7.56
2023-02-27T09:10:09.956Z,7.67
2023-02-27T09:12:56.060Z,7.70
2023-02-27T09:15:41.869Z,7.72
2023-02-27T09:18:27.681Z,7.82
2023-02-27T09:21:13.879Z,7.83
2023-02-27T09:24:07.391Z,7.87
2023-02-27T09:27:03.674Z,7.87
2023-02-27T09:29:55.492Z,7.94
2023-02-27T09:32:41.343Z,7.92
2023-02-27T09:35:27.380Z,8.00
2023-02-27T09:38:13.801Z,8.06
2023-02-27T09:40:59.708Z,7.98
2023-02-27T09:43:48.331Z,8.10
2023-02-27T09:46:35.375Z,7.85
2023-02-27T09:49:24.975Z,8.09
2023-02-27T09:52:13.591Z,7.93
2023-02-27T09:54:59.580Z,8.27
2023-02-27T09:58:22.445Z,8.26
2023-02-27T10:01:33.737Z,8.29
2023-02-27T10:04:27.517Z,8.17
2023-02-27T10:07:38.746Z,8.27
2023-02-27T10:10:24.780Z,8.35
2023-02-27T10:13:40.829Z,8.22
2023-02-27T10:16:28.100Z,8.26
2023-02-27T10:19:17.457Z,8.29
2023-02-27T10:22:05.814Z,8.25
2023-02-27T10:24:57.436Z,8.31
2023-02-27T10:27:49.777Z,8.29
2023-02-27T10:30:36.159Z,8.28
2023-02-27T10:33:35.272Z,8.27
2023-02-27T10:36:33.057Z,8.46
2023-02-27T10:39:21.417Z,8.48
2023-02-27T10:42:09.569Z,8.65
2023-02-27T10:44:56.124Z,8.69
2023-02-27T10:47:42.909Z,8.72
2023-02-27T10:50:32.203Z,8.87
2023-02-27T10:53:23.302Z,8.85
2023-02-27T10:56:17.148Z,8.90
2023-02-27T10:59:06.139Z,8.92
2023-02-27T11:01:58.095Z,8.96
2023-02-27T11:04:53.856Z,8.93
2023-02-27T11:07:40.050Z,8.97
2023-02-27T11:10:28.379Z,8.92
2023-02-27T11:13:22.254Z,8.96
2023-02-27T11:16:18.779Z,8.96
2023-02-27T11:19:24.858Z,8.81
2023-02-27T11:22:15.400Z,8.92
2023-02-27T11:25:21.077Z,8.88
2023-02-27T11:28:25.293Z,8.80
2023-02-27T11:31:22.700Z,8.90
2023-02-27T11:34:37.434Z,8.80
2023-02-27T11:37:23.392Z,8.95
2023-02-27T11:40:09.386Z,8.96
2023-02-27T11:42:59.174Z,8.92
2023-02-27T11:46:21.436Z,8.92
2023-02-27T11:49:21.560Z,8.84
2023-02-27T11:52:25.890Z,9.06
2023-02-27T11:55:16.043Z,9.08
2023-02-27T11:58:06.595Z,9.04
2023-02-27T12:01:01.884Z,9.10
2023-02-27T12:03:55.713Z,9.11
2023-02-27T12:06:47.242Z,9.09
2023-02-27T12:09:38.086Z,9.02
2023-02-27T12:12:42.038Z,9.18
2023-02-27T12:15:34.444Z,9.24
2023-02-27T12:18:23.960Z,9.34
2023-02-27T12:21:28.539Z,9.35
2023-02-27T12:24:21.268Z,8.93
2023-02-27T12:27:21.728Z,9.32
2023-02-27T12:30:16.941Z,9.32
2023-02-27T12:33:13.594Z,9.33
2023-02-27T12:36:02.114Z,9.40
2023-02-27T12:38:48.724Z,9.37
2023-02-27T12:41:48.041Z,9.10
2023-02-27T12:44:33.936Z,9.14
2023-02-27T12:47:39.756Z,9.29
2023-02-27T12:50:26.525Z,9.02
2023-02-27T12:53:27.594Z,9.14
2023-02-27T12:56:17.353Z,9.15
2023-02-27T12:59:09.522Z,9.19
2023-02-27T13:02:23.185Z,9.27
2023-02-27T13:05:29.982Z,9.27
2023-02-27T13:08:50.562Z,9.34
2023-02-27T13:12:01.384Z,9.19
2023-02-27T13:15:06.871Z,9.40
2023-02-27T13:18:05.410Z,9.35
2023-02-27T13:20:57.354Z,9.37
2023-02-27T13:23:58.603Z,9.39
2023-02-27T13:26:48.787Z,9.19
2023-02-27T13:29:35.002Z,9.41
2023-02-27T13:32:45.758Z,9.16
2023-02-27T13:36:27.184Z,9.09
2023-02-27T13:39:39.459Z,9.29
2023-02-27T13:42:30.216Z,9.32
2023-02-27T13:45:47.293Z,9.32
2023-02-27T13:48:41.329Z,9.30
2023-02-27T13:51:37.428Z,9.24
2023-02-27T13:54:27.413Z,9.19
2023-02-27T13:57:22.566Z,9.27
2023-02-27T14:00:23.262Z,9.13
2023-02-27T14:03:29.960Z,9.08
2023-02-27T14:06:16.039Z,9.22
2023-02-27T14:09:14.318Z,9.19
2023-02-27T14:12:02.344Z,9.18
2023-02-27T14:14:50.411Z,9.21
2023-02-27T14:17:36.497Z,9.04
2023-02-27T14:20:31.204Z,9.01
2023-02-27T14:23:17.251Z,8.89
2023-02-27T14:26:16.409Z,8.83
2023-02-27T14:29:02.648Z,8.98
2023-02-27T14:31:49.550Z,8.95
2023-02-27T14:34:36.396Z,8.95
2023-02-27T14:37:25.175Z,8.91
2023-02-27T14:40:31.371Z,8.90
2023-02-27T14:43:27.553Z,8.85
2023-02-27T14:46:25.194Z,8.79
2023-02-27T14:49:20.735Z,8.81
2023-02-27T14:52:29.863Z,8.48
2023-02-27T14:55:28.054Z,8.73
2023-02-27T14:58:13.938Z,8.65
2023-02-27T15:01:04.323Z,8.72
2023-02-27T15:03:53.646Z,8.80
2023-02-27T15:06:45.396Z,8.55
2023-02-27T15:09:44.721Z,8.66
2023-02-27T15:12:31.512Z,8.52
2023-02-27T15:15:19.579Z,8.66
2023-02-27T15:18:13.222Z,8.49
2023-02-27T15:20:59.849Z,8.67
2023-02-27T15:23:54.997Z,8.34
2023-02-27T15:26:41.835Z,8.53
2023-02-27T15:29:58.378Z,8.56
2023-02-27T15:32:44.772Z,8.61
2023-02-27T15:35:36.234Z,8.57
2023-02-27T15:38:33.747Z,8.55
2023-02-27T15:41:20.122Z,8.62
2023-02-27T15:44:06.331Z,8.56
2023-02-27T15:46:52.991Z,8.57
2023-02-27T15:49:39.109Z,8.53
2023-02-27T15:52:27.036Z,8.56
2023-02-27T15:55:15.920Z,8.58
2023-02-27T15:58:04.081Z,8.51
2023-02-27T16:00:52.968Z,8.53
2023-02-27T16:03:45.793Z,8.51
2023-02-27T16:06:35.513Z,8.17
2023-02-27T16:09:33.475Z,8.27
2023-02-27T16:12:31.325Z,8.27
2023-02-27T16:15:30.382Z,8.31
2023-02-27T16:18:16.361Z,8.40
2023-02-27T16:21:11.610Z,8.35
2023-02-27T16:24:18.367Z,8.37
2023-02-27T16:27:04.426Z,8.39
2023-02-27T16:29:51.613Z,8.44
2023-02-27T16:32:44.114Z,8.41
2023-02-27T16:35:30.271Z,8.35
2023-02-27T16:38:17.259Z,8.49
2023-02-27T16:41:03.556Z,8.52
2023-02-27T16:43:50.690Z,8.56
2023-02-27T16:46:36.518Z,8.57
2023-02-27T16:49:28.194Z,8.51
2023-02-27T16:52:14.256Z,8.45
2023-02-27T16:55:00.042Z,8.52
2023-02-27T16:57:45.944Z,8.40
2023-02-27T17:00:34.008Z,8.37
2023-02-27T17:03:20.052Z,8.31
2023-02-27T17:06:07.904Z,8.29
2023-02-27T17:08:53.678Z,8.23
2023-02-27T17:11:39.504Z,8.25
2023-02-27T17:14:25.162Z,8.18
2023-02-27T17:17:11.608Z,8.13
2023-02-27T17:19:57.919Z,8.16
2023-02-27T17:22:44.961Z,8.15
2023-02-27T17:25:31.126Z,8.17
2023-02-27T17:28:16.880Z,8.20
2023-02-27T17:31:10.911Z,8.12
2023-02-27T17:33:57.004Z,8.14
2023-02-27T17:36:43.392Z,8.16
2023-02-27T17:39:29.439Z,8.14
2023-02-27T17:42:18.472Z,8.17
2023-02-27T17:45:06.494Z,8.13
2023-02-27T17:47:53.588Z,8.09
2023-02-27T17:50:40.240Z,8.13
2023-02-27T17:53:26.076Z,8.16
2023-02-27T17:56:13.076Z,8.19
2023-02-27T17:58:58.916Z,8.18
2023-02-27T18:01:44.978Z,8.14
2023-02-27T18:04:34.604Z,8.14
2023-02-27T18:07:20.747Z,8.15
2023-02-27T18:10:09.162Z,8.14
2023-02-27T18:12:55.354Z,8.11
2023-02-27T18:15:41.682Z,8.19
2023-02-27T18:18:27.821Z,8.14
2023-02-27T18:21:17.084Z,8.12
2023-02-27T18:24:03.192Z,8.23
2023-02-27T18:26:49.363Z,8.26
2023-02-27T18:29:36.841Z,8.12
2023-02-27T18:32:22.951Z,8.17
2023-02-27T18:35:09.493Z,8.03
2023-02-27T18:37:55.449Z,7.91
2023-02-27T18:40:42.802Z,8.02
2023-02-27T18:43:28.702Z,7.95
2023-02-27T18:46:15.037Z,7.77
2023-02-27T18:49:01.287Z,7.57
2023-02-27T18:51:47.544Z,7.57
2023-02-27T18:54:33.634Z,7.27
2023-02-27T18:57:19.452Z,7.23
2023-02-27T19:00:07.056Z,7.46
2023-02-27T19:02:53.341Z,7.33
2023-02-27T19:05:41.560Z,7.40
2023-02-27T19:08:30.439Z,7.46
2023-02-27T19:11:33.119Z,7.38
2023-02-27T19:14:19.320Z,7.30
2023-02-27T19:17:05.578Z,7.47
2023-02-27T19:19:53.585Z,7.51
2023-02-27T19:22:40.000Z,7.43
2023-02-27T19:25:26.477Z,7.48
2023-02-27T19:28:14.720Z,7.43
2023-02-27T19:31:06.234Z,7.50
2023-02-27T19:33:52.455Z,7.46
2023-02-27T19:36:40.218Z,7.44
2023-02-27T19:39:26.371Z,7.49
2023-02-27T19:42:12.392Z,7.53
2023-02-27T19:44:58.231Z,7.41
2023-02-27T19:47:44.477Z,7.30
2023-02-27T19:50:30.684Z,7.33
2023-02-27T19:53:16.701Z,7.34
2023-02-27T19:56:05.375Z,7.35
2023-02-27T19:58:51.971Z,7.02
2023-02-27T20:01:39.129Z,7.18
2023-02-27T20:04:25.361Z,7.23
2023-02-27T20:07:12.279Z,7.15
2023-02-27T20:09:58.584Z,7.19
2023-02-27T20:12:44.759Z,7.23
2023-02-27T20:15:30.654Z,7.21
2023-02-27T20:18:16.506Z,7.30
2023-02-27T20:21:05.974Z,7.35
2023-02-27T20:23:52.145Z,7.41
2023-02-27T20:26:41.828Z,7.39
2023-02-27T20:29:28.035Z,7.43
2023-02-27T20:32:14.339Z,7.47
2023-02-27T20:35:00.665Z,7.49
2023-02-27T20:37:46.507Z,7.53
2023-02-27T20:40:33.555Z,7.55
2023-02-27T20:43:19.518Z,7.50
2023-02-27T20:46:06.658Z,7.58
2023-02-27T20:48:52.650Z,7.55
2023-02-27T20:51:39.813Z,7.51
2023-02-27T20:54:25.943Z,7.60
2023-02-27T20:57:11.939Z,7.57
2023-02-27T20:59:57.721Z,7.61
2023-02-27T21:02:44.655Z,7.49
2023-02-27T21:05:31.140Z,7.59
2023-02-27T21:08:17.679Z,7.63
2023-02-27T21:11:15.146Z,7.55
2023-02-27T21:14:08.224Z,7.56
2023-02-27T21:16:53.898Z,7.48
2023-02-27T21:19:40.053Z,7.61
2023-02-27T21:22:26.298Z,7.58
2023-02-27T21:25:12.425Z,7.61
2023-02-27T21:28:02.282Z,7.57
2023-02-27T21:30:48.354Z,7.50
2023-02-27T21:33:34.761Z,7.57
2023-02-27T21:36:29.675Z,7.54
2023-02-27T21:39:26.259Z,7.49
2023-02-27T21:42:13.033Z,7.51
2023-02-27T21:44:59.492Z,7.55
2023-02-27T21:47:45.995Z,7.58
2023-02-27T21:50:34.165Z,7.60
2023-02-27T21:53:20.156Z,7.63
2023-02-27T21:56:08.082Z,7.63
2023-02-27T21:58:54.286Z,7.69
2023-02-27T22:01:40.576Z,7.65
2023-02-27T22:04:26.758Z,7.68
2023-02-27T22:07:12.757Z,7.64
2023-02-27T22:09:58.534Z,7.61
2023-02-27T22:12:44.850Z,7.60
2023-02-27T22:15:30.887Z,7.63
2023-02-27T22:18:16.636Z,7.65
2023-02-27T22:21:03.427Z,7.59
2023-02-27T22:23:50.214Z,7.66
2023-02-27T22:26:36.452Z,7.69
2023-02-27T22:29:22.670Z,7.69
2023-02-27T22:32:12.535Z,7.64
2023-02-27T22:34:59.514Z,7.60
2023-02-27T22:37:45.506Z,7.65
2023-02-27T22:40:33.827Z,7.53
2023-02-27T22:43:19.653Z,7.57
2023-02-27T22:46:09.801Z,7.60
2023-02-27T22:48:57.099Z,7.56
2023-02-27T22:51:43.353Z,7.61
2023-02-27T22:54:29.447Z,7.61
2023-02-27T22:57:16.055Z,7.60
2023-02-27T23:00:01.984Z,7.68
2023-02-27T23:02:47.762Z,7.67
2023-02-27T23:05:33.698Z,7.65
2023-02-27T23:08:19.394Z,7.67
2023-02-27T23:11:13.316Z,7.68
2023-02-27T23:14:00.536Z,7.67
2023-02-27T23:16:47.359Z,7.68
2023-02-27T23:19:34.246Z,7.61
2023-02-27T23:22:20.318Z,7.51
2023-02-27T23:25:07.772Z,7.55
2023-02-27T23:27:53.441Z,7.60
2023-02-27T23:30:39.353Z,7.52
2023-02-27T23:33:27.090Z,7.48
2023-02-27T23:36:15.411Z,7.57
2023-02-27T23:39:03.079Z,7.53
2023-02-27T23:41:49.513Z,7.36
2023-02-27T23:44:35.389Z,7.50
2023-02-27T23:47:39.722Z,7.47
2023-02-27T23:50:28.566Z,7.55
2023-02-27T23:53:14.982Z,7.40
2023-02-27T23:56:01.095Z,7.55
2023-02-27T23:58:47.537Z,7.49
